Time;durP1;ratioP1;P1;durP2;ratioP2;P2;SDS_P1;SDS_P2;PMS_P1;PMS_P2;Temp;Humidity;BMP_temperature;BMP_pressure;BME280_temperature;BME280_humidity;BME280_pressure;Samples;Min_cycle;Max_cycle;Signal;HPM_P1;HPM_P2
2021/10/14 00:00:32;;;;;;;0.00;0.00;;;;;;;10.40;95.95;99214.81;5032536;28;20033;-74
2021/10/14 00:02:58;;;;;;;0.10;0.10;;;;;;;10.35;95.31;99218.25;5032140;28;20033;-73
2021/10/14 00:05:24;;;;;;;0.20;0.20;;;;;;;10.23;95.26;99193.69;5031013;28;20030;-72
2021/10/14 00:07:49;;;;;;;0.08;0.08;;;;;;;10.27;95.55;99197.41;5030695;28;20116;-74
2021/10/14 00:10:15;;;;;;;1.05;1.05;;;;;;;10.23;95.12;99207.84;5031019;28;20029;-73
2021/10/14 00:12:40;;;;;;;0.57;0.57;;;;;;;10.24;95.82;99206.78;5032150;28;20403;-71
2021/10/14 00:15:07;;;;;;;0.00;0.00;;;;;;;10.27;95.46;99210.78;5031054;28;20052;-71
2021/10/14 00:17:32;;;;;;;0.60;0.38;;;;;;;10.22;95.68;99211.59;5030807;28;20025;-73
2021/10/14 00:19:58;;;;;;;0.00;0.00;;;;;;;10.21;95.70;99206.53;5031478;28;20610;-73
2021/10/14 00:22:23;;;;;;;1.02;1.02;;;;;;;10.19;96.07;99206.78;5032280;28;20037;-73
2021/10/14 00:24:48;;;;;;;0.13;0.13;;;;;;;10.15;96.05;99196.91;5030723;28;20503;-71
2021/10/14 00:27:14;;;;;;;0.45;0.45;;;;;;;10.12;95.96;99194.75;5031956;28;20030;-72
2021/10/14 00:29:39;;;;;;;1.65;0.68;;;;;;;10.13;95.71;99201.72;5032183;28;20398;-72
2021/10/14 00:32:05;;;;;;;0.28;0.28;;;;;;;10.10;95.83;99200.38;5031777;28;20136;-71
2021/10/14 00:34:30;;;;;;;1.42;1.38;;;;;;;10.15;96.60;99216.41;5031487;28;20037;-73
2021/10/14 00:36:56;;;;;;;0.20;0.20;;;;;;;10.12;96.26;99213.47;5030592;28;20399;-72
2021/10/14 00:39:21;;;;;;;0.68;0.68;;;;;;;10.05;96.29;99200.38;5031434;28;20033;-74
2021/10/14 00:41:46;;;;;;;1.55;0.95;;;;;;;10.10;96.44;99211.84;5031846;28;20043;-72
2021/10/14 00:44:12;;;;;;;0.47;0.47;;;;;;;10.04;95.75;99215.59;5031523;28;20033;-70
2021/10/14 00:46:48;;;;;;;0.45;0.45;;;;;;;10.06;95.73;99207.34;5031553;28;20031;-72
2021/10/14 00:49:14;;;;;;;0.85;0.85;;;;;;;9.98;95.78;99202.53;5031937;28;20037;-73
2021/10/14 00:51:39;;;;;;;0.00;0.00;;;;;;;10.01;95.42;99210.00;5031251;28;20025;-71
2021/10/14 00:54:04;;;;;;;0.95;0.95;;;;;;;9.98;94.89;99210.53;5031796;28;20542;-71
2021/10/14 00:56:30;;;;;;;0.10;0.10;;;;;;;9.93;95.37;99203.31;5031446;28;20044;-71
2021/10/14 00:58:55;;;;;;;0.30;0.30;;;;;;;9.86;95.71;99186.75;5030109;28;20101;-72
2021/10/14 01:01:21;;;;;;;0.98;0.95;;;;;;;9.83;95.76;99188.09;5031550;28;20026;-70
2021/10/14 01:03:46;;;;;;;0.28;0.28;;;;;;;9.87;96.40;99188.38;5029751;28;20021;-70
2021/10/14 01:06:11;;;;;;;1.80;1.02;;;;;;;9.80;96.30;99187.84;5031742;28;20034;-70
2021/10/14 01:08:37;;;;;;;0.00;0.00;;;;;;;9.65;96.60;99172.63;5031423;28;20033;-71
2021/10/14 01:11:02;;;;;;;2.00;1.20;;;;;;;9.77;96.48;99191.84;5029504;28;20029;-71
2021/10/14 01:13:28;;;;;;;0.15;0.15;;;;;;;9.72;95.70;99195.31;5031287;28;20623;-72
2021/10/14 01:15:53;;;;;;;0.60;0.60;;;;;;;9.65;96.00;99194.75;5029665;28;20049;-71
2021/10/14 01:18:19;;;;;;;0.30;0.30;;;;;;;9.66;96.32;99198.25;5030972;28;20032;-70
2021/10/14 01:20:44;;;;;;;0.10;0.10;;;;;;;9.66;96.48;99200.91;5029441;28;20025;-71
2021/10/14 01:23:12;;;;;;;0.00;0.00;;;;;;;9.67;96.40;99206.00;5029943;28;20040;-71
2021/10/14 01:25:38;;;;;;;0.47;0.47;;;;;;;9.62;96.02;99211.34;5030884;28;20113;-72
2021/10/14 01:28:03;;;;;;;0.10;0.10;;;;;;;9.61;95.59;99209.72;5030703;28;20120;-73
2021/10/14 01:30:29;;;;;;;0.10;0.10;;;;;;;9.65;95.78;99210.00;5029653;28;20120;-71
2021/10/14 01:32:54;;;;;;;0.10;0.10;;;;;;;9.54;95.28;99198.50;5030784;28;20489;-72
2021/10/14 01:35:20;;;;;;;0.00;0.00;;;;;;;9.62;95.09;99214.00;5029270;28;20053;-74
2021/10/14 01:37:46;;;;;;;0.00;0.00;;;;;;;9.65;95.49;99213.47;5029121;28;20079;-72
2021/10/14 01:40:12;;;;;;;0.20;0.20;;;;;;;9.66;95.71;99216.94;5030800;28;20050;-69
2021/10/14 01:42:37;;;;;;;0.00;0.00;;;;;;;9.63;95.59;99210.28;5031059;28;20087;-71
2021/10/14 01:45:04;;;;;;;0.32;0.32;;;;;;;9.54;95.64;99201.16;5029340;28;20122;-70
2021/10/14 01:47:33;;;;;;;0.00;0.00;;;;;;;9.54;96.19;99201.16;5030856;28;20029;-70
2021/10/14 01:49:58;;;;;;;0.00;0.00;;;;;;;9.59;96.35;99215.34;5030352;28;20545;-71
2021/10/14 01:52:24;;;;;;;0.22;0.22;;;;;;;9.61;96.90;99215.84;5030762;28;20220;-70
2021/10/14 01:54:49;;;;;;;0.68;0.68;;;;;;;9.60;96.83;99218.78;5029580;28;20037;-72
2021/10/14 01:57:15;;;;;;;1.08;1.00;;;;;;;9.56;96.71;99217.72;5030795;28;20029;-70
2021/10/14 01:59:40;;;;;;;0.00;0.00;;;;;;;9.51;97.21;99212.38;5030519;28;20034;-70
2021/10/14 02:02:06;;;;;;;0.45;0.45;;;;;;;9.48;97.35;99210.25;5030523;28;20508;-70
2021/10/14 02:04:32;;;;;;;0.10;0.10;;;;;;;9.42;97.46;99206.75;5029021;28;20026;-73
2021/10/14 02:06:57;;;;;;;0.10;0.10;;;;;;;9.52;98.37;99224.66;5030251;28;20026;-72
2021/10/14 02:09:23;;;;;;;0.65;0.65;;;;;;;9.48;97.84;99226.25;5030604;28;20466;-74
2021/10/14 02:11:48;;;;;;;0.00;0.00;;;;;;;9.45;98.08;99222.25;5030079;28;20064;-73
2021/10/14 02:14:14;;;;;;;1.27;1.27;;;;;;;9.43;98.56;99211.81;5030609;28;20021;-71
2021/10/14 02:16:39;;;;;;;0.28;0.28;;;;;;;9.53;98.28;99218.25;5030583;28;20022;-74
2021/10/14 02:19:05;;;;;;;0.75;0.75;;;;;;;9.41;98.41;99200.63;5029702;28;20434;-76
2021/10/14 02:21:31;;;;;;;1.08;0.68;;;;;;;9.50;98.54;99216.91;5029232;28;20142;-75
2021/10/14 02:23:56;;;;;;;0.30;0.30;;;;;;;9.50;98.62;99219.59;5028981;28;20171;-72
2021/10/14 02:26:21;;;;;;;0.20;0.20;;;;;;;9.47;98.98;99217.44;5030199;28;20482;-74
2021/10/14 02:28:47;;;;;;;0.15;0.15;;;;;;;9.48;98.55;99216.38;5028980;28;20391;-72
2021/10/14 02:31:12;;;;;;;0.00;0.00;;;;;;;9.53;99.07;99226.25;5030065;28;20021;-74
2021/10/14 02:33:38;;;;;;;0.35;0.35;;;;;;;9.49;98.71;99225.97;5027619;28;20022;-73
2021/10/14 02:36:03;;;;;;;0.30;0.30;;;;;;;9.50;98.35;99221.47;5028839;28;20029;-72
2021/10/14 02:38:29;;;;;;;0.15;0.15;;;;;;;9.47;98.11;99216.63;5029781;28;20041;-70
2021/10/14 02:40:54;;;;;;;0.05;0.05;;;;;;;9.52;98.57;99227.31;5030214;28;20045;-71
2021/10/14 02:43:19;;;;;;;0.70;0.70;;;;;;;9.51;98.60;99229.19;5030304;28;20094;-70
2021/10/14 02:45:45;;;;;;;0.00;0.00;;;;;;;9.40;98.52;99223.03;5030270;28;20458;-71
2021/10/14 02:48:10;;;;;;;0.35;0.35;;;;;;;9.51;99.67;99244.41;5029006;28;20474;-72
2021/10/14 02:50:36;;;;;;;0.52;0.52;;;;;;;9.52;99.64;99248.69;5029883;28;20548;-72
2021/10/14 02:53:01;;;;;;;0.00;0.00;;;;;;;9.51;100.00;99253.22;5029748;28;20021;-71
2021/10/14 02:55:27;;;;;;;0.05;0.05;;;;;;;9.56;99.86;99260.44;5030340;28;20108;-72
2021/10/14 02:57:52;;;;;;;1.27;1.17;;;;;;;9.52;99.25;99256.69;5030121;28;20026;-72
2021/10/14 03:00:17;;;;;;;0.25;0.25;;;;;;;9.50;99.76;99258.84;5030076;28;20166;-71
2021/10/14 03:02:43;;;;;;;0.20;0.20;;;;;;;9.39;99.80;99242.00;5030155;28;20026;-71
2021/10/14 03:05:08;;;;;;;0.20;0.20;;;;;;;9.39;100.00;99242.78;5029959;28;20045;-73
2021/10/14 03:07:34;;;;;;;0.43;0.43;;;;;;;9.40;100.00;99247.06;5031783;28;20052;-71
2021/10/14 03:09:59;;;;;;;0.68;0.68;;;;;;;9.37;100.00;99249.44;5033447;28;20029;-71
2021/10/14 03:12:25;;;;;;;0.20;0.20;;;;;;;9.24;100.00;99230.19;5031947;28;20037;-73
2021/10/14 03:14:50;;;;;;;0.25;0.25;;;;;;;9.18;100.00;99225.91;5033458;28;20108;-73
2021/10/14 03:17:16;;;;;;;0.00;0.00;;;;;;;9.23;100.00;99235.81;5032416;28;20498;-73
2021/10/14 03:19:42;;;;;;;0.38;0.38;;;;;;;9.24;100.00;99242.72;5032367;28;20440;-73
2021/10/14 03:22:07;;;;;;;0.03;0.03;;;;;;;9.15;100.00;99241.66;5033141;28;20411;-72
2021/10/14 03:24:32;;;;;;;0.20;0.20;;;;;;;9.12;100.00;99241.09;5031529;28;20025;-72
2021/10/14 03:26:58;;;;;;;0.00;0.00;;;;;;;9.13;100.00;99239.25;5033272;28;20029;-72
2021/10/14 03:29:23;;;;;;;0.40;0.40;;;;;;;9.02;100.00;99226.91;5033343;28;20470;-71
2021/10/14 03:31:49;;;;;;;1.05;1.05;;;;;;;9.08;100.00;99234.69;5032246;28;20037;-75
2021/10/14 03:34:14;;;;;;;0.65;0.50;;;;;;;9.06;100.00;99231.47;5033081;28;20163;-75
2021/10/14 03:36:40;;;;;;;0.28;0.28;;;;;;;9.06;100.00;99236.81;5033282;28;20575;-73
2021/10/14 03:39:05;;;;;;;0.38;0.38;;;;;;;9.01;100.00;99230.63;5032720;28;20468;-73
2021/10/14 03:41:31;;;;;;;2.55;1.08;;;;;;;8.73;100.00;99196.13;5012439;28;20053;-73
2021/10/14 03:43:56;;;;;;;0.30;0.30;;;;;;;8.98;100.00;99242.63;5013192;28;20034;-71
2021/10/14 03:46:22;;;;;;;0.30;0.30;;;;;;;8.93;100.00;99227.41;5025124;28;20060;-72
2021/10/14 03:48:47;;;;;;;0.60;0.60;;;;;;;8.97;100.00;99244.50;5032375;28;21580;-71
2021/10/14 03:51:12;;;;;;;1.10;0.95;;;;;;;8.99;100.00;99235.44;5032542;28;20029;-71
2021/10/14 03:53:38;;;;;;;0.05;0.05;;;;;;;8.94;100.00;99228.22;5032365;28;20039;-73
2021/10/14 03:56:04;;;;;;;0.10;0.10;;;;;;;9.00;100.00;99231.72;5032656;28;20033;-73
2021/10/14 03:58:29;;;;;;;0.00;0.00;;;;;;;9.01;100.00;99242.13;5032656;28;20029;-72
2021/10/14 04:00:54;;;;;;;0.10;0.10;;;;;;;8.83;100.00;99224.72;5032310;28;20025;-74
2021/10/14 04:03:20;;;;;;;0.40;0.40;;;;;;;8.92;100.00;99233.00;5031904;28;20036;-75
2021/10/14 04:05:45;;;;;;;0.05;0.05;;;;;;;8.99;100.00;99252.25;5032493;28;20026;-75
2021/10/14 04:08:11;;;;;;;0.17;0.17;;;;;;;8.94;100.00;99246.91;5031350;28;20026;-79
2021/10/14 04:10:37;;;;;;;0.25;0.25;;;;;;;8.95;100.00;99259.16;5031181;28;20035;-78
2021/10/14 04:13:04;;;;;;;0.00;0.00;;;;;;;8.98;100.00;99258.63;5031107;28;20075;-75
2021/10/14 04:15:30;;;;;;;0.45;0.45;;;;;;;8.97;100.00;99254.34;5030837;28;20041;-74
2021/10/14 04:17:55;;;;;;;0.43;0.13;;;;;;;8.92;100.00;99246.34;5027662;28;20417;-72
2021/10/14 04:20:21;;;;;;;1.65;0.80;;;;;;;8.90;100.00;99249.28;5023807;28;20128;-75
2021/10/14 04:22:46;;;;;;;0.20;0.20;;;;;;;8.91;100.00;99258.88;5026304;28;20025;-79
2021/10/14 04:25:12;;;;;;;0.08;0.08;;;;;;;8.80;100.00;99231.38;5026671;28;20038;-76
2021/10/14 04:27:38;;;;;;;0.70;0.70;;;;;;;8.87;100.00;99257.78;5022067;28;20402;-76
2021/10/14 04:30:05;;;;;;;0.05;0.05;;;;;;;8.82;100.00;99249.75;5015038;28;20112;-73
2021/10/14 04:32:30;;;;;;;0.30;0.30;;;;;;;8.72;100.00;99229.19;5012222;28;20113;-72
2021/10/14 04:34:55;;;;;;;8.52;1.23;;;;;;;8.75;100.00;99230.53;5012016;28;20551;-71
2021/10/14 04:37:21;;;;;;;0.20;0.20;;;;;;;8.76;100.00;99245.47;5011797;28;20049;-72
2021/10/14 04:39:46;;;;;;;0.40;0.40;;;;;;;8.68;100.00;99240.63;5011673;28;20145;-71
2021/10/14 04:42:12;;;;;;;0.00;0.00;;;;;;;8.74;100.00;99255.56;5011906;28;20033;-72
2021/10/14 04:44:38;;;;;;;2.35;2.20;;;;;;;8.70;100.00;99249.16;5012572;28;20116;-72
2021/10/14 04:47:06;;;;;;;0.00;0.00;;;;;;;8.69;100.00;99247.56;5011676;28;20159;-72
2021/10/14 04:49:32;;;;;;;0.43;0.43;;;;;;;8.65;100.00;99242.75;5010523;28;20116;-72
2021/10/14 04:51:58;;;;;;;0.73;0.73;;;;;;;8.68;100.00;99254.78;5011612;28;20487;-73
2021/10/14 04:54:23;;;;;;;0.60;0.60;;;;;;;8.65;100.00;99257.94;5011695;28;20125;-73
2021/10/14 04:56:49;;;;;;;0.40;0.40;;;;;;;8.69;100.00;99275.03;5011917;28;20060;-73
2021/10/14 04:59:14;;;;;;;0.35;0.35;;;;;;;8.62;100.00;99264.59;5011541;28;20036;-73
2021/10/14 05:01:39;;;;;;;0.10;0.10;;;;;;;8.70;100.00;99273.16;5011991;28;20131;-74
2021/10/14 05:04:05;;;;;;;0.40;0.40;;;;;;;8.66;100.00;99267.53;5011382;28;20127;-73
2021/10/14 05:06:31;;;;;;;0.10;0.10;;;;;;;8.76;100.00;99277.47;5011624;28;20026;-73
2021/10/14 05:08:56;;;;;;;0.08;0.08;;;;;;;8.68;100.00;99256.59;5011769;28;20038;-73
2021/10/14 05:11:22;;;;;;;0.10;0.10;;;;;;;8.69;100.00;99259.03;5011541;28;20575;-73
2021/10/14 05:13:47;;;;;;;0.40;0.40;;;;;;;8.68;100.00;99254.78;5011749;28;20029;-73
2021/10/14 05:16:13;;;;;;;0.57;0.57;;;;;;;8.75;100.00;99267.84;5011380;28;20479;-73
2021/10/14 05:18:38;;;;;;;0.10;0.10;;;;;;;8.74;100.00;99260.91;5011650;28;20030;-73
2021/10/14 05:21:04;;;;;;;1.10;1.10;;;;;;;8.77;100.00;99271.88;5011347;28;20398;-73
2021/10/14 05:23:29;;;;;;;0.05;0.05;;;;;;;8.66;100.00;99251.53;5010334;28;20115;-73
2021/10/14 05:25:55;;;;;;;0.30;0.30;;;;;;;8.69;100.00;99258.22;5011359;28;20084;-73
2021/10/14 05:28:21;;;;;;;2.92;0.98;;;;;;;8.64;100.00;99264.31;5010147;28;20152;-73
2021/10/14 05:30:47;;;;;;;0.10;0.10;;;;;;;8.69;100.00;99283.03;5009320;28;20030;-73
2021/10/14 05:33:13;;;;;;;0.30;0.30;;;;;;;8.71;100.00;99280.91;5010966;28;20396;-73
2021/10/14 05:35:39;;;;;;;0.08;0.08;;;;;;;8.62;100.00;99275.25;5011699;28;20491;-73
2021/10/14 05:38:06;;;;;;;0.20;0.20;;;;;;;8.68;100.00;99285.94;5011335;28;20084;-73
2021/10/14 05:40:32;;;;;;;0.40;0.40;;;;;;;8.69;100.00;99279.56;5011038;28;20061;-73
2021/10/14 05:42:57;;;;;;;0.00;0.00;;;;;;;8.60;100.00;99268.56;5010945;28;20506;-73
2021/10/14 05:45:23;;;;;;;1.65;0.68;;;;;;;8.65;100.00;99281.94;5009778;28;20025;-73
2021/10/14 05:47:48;;;;;;;0.57;0.52;;;;;;;8.59;100.00;99273.13;5009890;28;20030;-73
2021/10/14 05:50:13;;;;;;;0.10;0.10;;;;;;;8.54;100.00;99261.59;5011270;28;20479;-73
2021/10/14 05:52:39;;;;;;;0.13;0.13;;;;;;;8.60;100.00;99268.56;5010743;28;20026;-73
2021/10/14 05:55:05;;;;;;;0.70;0.60;;;;;;;8.55;100.00;99271.22;5009630;28;20068;-73
2021/10/14 05:57:30;;;;;;;0.32;0.32;;;;;;;8.57;100.00;99271.75;5011288;28;20501;-73
2021/10/14 05:59:56;;;;;;;0.00;0.00;;;;;;;8.43;100.00;99260.69;5010842;28;20030;-73
2021/10/14 06:02:22;;;;;;;0.68;0.68;;;;;;;8.36;100.00;99246.78;5011339;28;20026;-72
2021/10/14 06:04:48;;;;;;;0.93;0.90;;;;;;;8.47;100.00;99273.28;5010982;28;20034;-73
2021/10/14 06:07:14;;;;;;;0.00;0.00;;;;;;;8.40;100.00;99261.19;5010788;28;20036;-73
2021/10/14 06:09:40;;;;;;;0.50;0.50;;;;;;;8.43;100.00;99276.69;5011274;28;20034;-73
2021/10/14 06:12:06;;;;;;;0.30;0.20;;;;;;;8.48;100.00;99290.91;5010709;28;20539;-74
2021/10/14 06:14:31;;;;;;;0.63;0.63;;;;;;;8.49;100.00;99289.84;5010630;28;20118;-73
2021/10/14 06:16:57;;;;;;;0.20;0.20;;;;;;;8.42;100.00;99275.91;5009400;28;20054;-73
2021/10/14 06:19:22;;;;;;;0.00;0.00;;;;;;;8.53;100.00;99299.97;5010756;28;20383;-73
2021/10/14 06:21:47;;;;;;;0.00;0.00;;;;;;;8.45;100.00;99291.38;5007283;28;20041;-73
2021/10/14 06:24:14;;;;;;;0.43;0.43;;;;;;;8.49;100.00;99289.03;5008701;28;20038;-72
2021/10/14 06:26:39;;;;;;;0.00;0.00;;;;;;;8.53;100.00;99295.44;5010173;28;20041;-73
2021/10/14 06:29:10;;;;;;;0.00;0.00;;;;;;;8.51;100.00;99291.44;5009223;28;20030;-72
2021/10/14 06:31:35;;;;;;;5.72;0.65;;;;;;;8.45;100.00;99286.03;5010294;28;20022;-73
2021/10/14 06:34:00;;;;;;;0.57;0.57;;;;;;;8.48;100.00;99295.41;5008647;28;20418;-73
2021/10/14 06:36:26;;;;;;;0.00;0.00;;;;;;;8.52;100.00;99303.69;5010645;28;20521;-73
2021/10/14 06:38:51;;;;;;;0.05;0.05;;;;;;;8.59;100.00;99306.94;5009498;28;20112;-73
2021/10/14 06:41:17;;;;;;;0.32;0.32;;;;;;;8.53;100.00;99297.31;5010196;28;20133;-74
2021/10/14 06:43:43;;;;;;;0.00;0.00;;;;;;;8.59;100.00;99325.63;5012754;28;20104;-74
2021/10/14 06:46:09;;;;;;;0.28;0.28;;;;;;;8.59;100.00;99328.28;5014249;28;20037;-74
2021/10/14 06:48:34;;;;;;;0.00;0.00;;;;;;;8.60;100.00;99328.00;5014057;28;20076;-73
2021/10/14 06:51:00;;;;;;;0.30;0.30;;;;;;;8.69;100.00;99335.53;5013351;28;20534;-73
2021/10/14 06:53:25;;;;;;;0.00;0.00;;;;;;;8.63;100.00;99321.41;5014210;28;20070;-73
2021/10/14 06:55:51;;;;;;;0.00;0.00;;;;;;;8.59;100.00;99320.28;5012703;28;20034;-73
2021/10/14 06:58:17;;;;;;;0.45;0.45;;;;;;;8.67;100.00;99332.31;5013179;28;20040;-73
2021/10/14 07:00:42;;;;;;;0.10;0.10;;;;;;;8.62;100.00;99328.56;5013970;28;20107;-73
2021/10/14 07:03:08;;;;;;;0.82;0.82;;;;;;;8.60;100.00;99335.22;5013856;28;20029;-73
2021/10/14 07:05:34;;;;;;;5.60;1.45;;;;;;;8.56;100.00;99336.81;5012294;28;20030;-73
2021/10/14 07:07:59;;;;;;;0.03;0.03;;;;;;;8.59;100.00;99337.09;5013491;28;20022;-73
2021/10/14 07:10:24;;;;;;;0.20;0.20;;;;;;;8.48;100.00;99328.22;5013375;28;20057;-73
2021/10/14 07:12:52;;;;;;;0.98;0.93;;;;;;;8.55;100.00;99333.31;5013547;28;20108;-75
2021/10/14 07:15:17;;;;;;;0.43;0.43;;;;;;;8.54;100.00;99336.25;5012267;28;20521;-73
2021/10/14 07:17:42;;;;;;;0.10;0.10;;;;;;;8.58;100.00;99337.34;5013614;28;20100;-74
2021/10/14 07:20:08;;;;;;;0.00;0.00;;;;;;;8.53;100.00;99331.97;5012793;28;20542;-74
2021/10/14 07:22:34;;;;;;;0.10;0.10;;;;;;;8.52;100.00;99322.34;5013595;28;20032;-74
2021/10/14 07:24:59;;;;;;;0.32;0.32;;;;;;;8.53;100.00;99326.63;5013227;28;20030;-74
2021/10/14 07:27:25;;;;;;;0.00;0.00;;;;;;;8.46;100.00;99326.84;5013719;28;20072;-74
2021/10/14 07:29:50;;;;;;;0.50;0.50;;;;;;;8.47;100.00;99328.44;5012372;28;20030;-74
2021/10/14 07:32:16;;;;;;;0.15;0.15;;;;;;;8.51;100.00;99342.88;5012016;28;20034;-75
2021/10/14 07:34:41;;;;;;;0.65;0.65;;;;;;;8.51;100.00;99336.75;5013292;28;20053;-74
2021/10/14 07:37:07;;;;;;;0.00;0.00;;;;;;;8.51;100.00;99329.56;5012080;28;20022;-74
2021/10/14 07:39:33;;;;;;;0.05;0.05;;;;;;;8.54;100.00;99346.91;5013236;28;20065;-75
2021/10/14 07:41:59;;;;;;;0.22;0.22;;;;;;;8.46;100.00;99333.00;5013295;28;20030;-74
2021/10/14 07:44:25;;;;;;;1.38;0.45;;;;;;;8.49;100.00;99327.16;5012148;28;20072;-74
2021/10/14 07:46:50;;;;;;;0.50;0.50;;;;;;;8.54;100.00;99337.03;5013512;28;20030;-73
2021/10/14 07:49:18;;;;;;;0.85;0.85;;;;;;;8.54;100.00;99330.91;5012973;28;20029;-73
2021/10/14 07:51:43;;;;;;;0.13;0.13;;;;;;;8.56;100.00;99328.81;5013107;28;20025;-73
2021/10/14 07:54:09;;;;;;;0.10;0.10;;;;;;;8.59;100.00;99329.09;5012199;28;20034;-73
2021/10/14 07:56:34;;;;;;;0.20;0.20;;;;;;;8.56;100.00;99334.94;5013031;28;20041;-73
2021/10/14 07:59:00;;;;;;;1.30;1.20;;;;;;;8.56;100.00;99342.13;5012798;28;20030;-73
2021/10/14 08:01:25;;;;;;;0.20;0.20;;;;;;;8.62;100.00;99343.78;5012778;28;20022;-73
2021/10/14 08:03:51;;;;;;;0.10;0.10;;;;;;;8.61;100.00;99350.16;5012713;28;20033;-73
2021/10/14 08:06:16;;;;;;;0.85;0.85;;;;;;;8.61;100.00;99345.63;5013082;28;20030;-73
2021/10/14 08:08:42;;;;;;;0.55;0.55;;;;;;;8.64;100.00;99344.31;5012912;28;20511;-73
2021/10/14 08:11:08;;;;;;;0.50;0.50;;;;;;;8.65;100.00;99352.06;5012638;28;20037;-73
2021/10/14 08:13:34;;;;;;;0.47;0.47;;;;;;;8.60;100.00;99346.69;5011325;28;20402;-73
2021/10/14 08:16:00;;;;;;;0.00;0.00;;;;;;;8.63;100.00;99350.72;5012649;28;20037;-73
2021/10/14 08:18:26;;;;;;;0.20;0.20;;;;;;;8.58;100.00;99343.47;5011325;28;20494;-74
2021/10/14 08:20:57;;;;;;;0.20;0.20;;;;;;;8.65;100.00;99351.25;5012453;28;20022;-74
2021/10/14 08:23:24;;;;;;;0.80;0.80;;;;;;;8.60;100.00;99341.34;5012386;28;20076;-74
2021/10/14 08:25:50;;;;;;;2.63;1.45;;;;;;;8.72;100.00;99369.72;5012642;28;20034;-74
2021/10/14 08:28:16;;;;;;;0.00;0.00;;;;;;;8.71;100.00;99358.22;5011073;28;20390;-74
2021/10/14 08:30:42;;;;;;;0.20;0.20;;;;;;;8.70;100.00;99343.28;5012384;28;20032;-74
2021/10/14 08:33:08;;;;;;;0.15;0.15;;;;;;;8.68;100.00;99345.41;5011942;28;20395;-73
2021/10/14 08:35:37;;;;;;;0.00;0.00;;;;;;;8.64;100.00;99347.78;5011117;28;20539;-73
2021/10/14 08:38:08;;;;;;;0.00;0.00;;;;;;;8.61;100.00;99352.81;5011814;28;20038;-73
2021/10/14 08:40:35;;;;;;;0.25;0.25;;;;;;;8.58;100.00;99342.66;5010912;28;20418;-74
2021/10/14 08:43:06;;;;;;;0.00;0.00;;;;;;;8.61;100.00;99347.50;5012622;28;20022;-74
2021/10/14 08:45:35;;;;;;;0.00;0.00;;;;;;;8.65;100.00;99354.72;5012326;28;20112;-74
2021/10/14 08:48:02;;;;;;;0.00;0.00;;;;;;;8.68;100.00;99366.75;5012170;28;20032;-75
2021/10/14 08:50:28;;;;;;;0.05;0.05;;;;;;;8.65;100.00;99357.41;5012522;28;20418;-75
2021/10/14 08:52:54;;;;;;;0.00;0.00;;;;;;;8.71;100.00;99366.22;5012057;28;20025;-74
2021/10/14 08:55:19;;;;;;;0.15;0.15;;;;;;;8.65;100.00;99344.06;5010484;28;20044;-73
2021/10/14 08:57:45;;;;;;;0.00;0.00;;;;;;;8.70;100.00;99345.16;5011710;28;20029;-73
2021/10/14 09:00:11;;;;;;;0.00;0.00;;;;;;;8.70;100.00;99347.81;5011744;28;20038;-73
2021/10/14 09:02:36;;;;;;;0.10;0.10;;;;;;;8.70;100.00;99350.50;5011905;28;20026;-73
2021/10/14 09:05:06;;;;;;;0.15;0.15;;;;;;;8.72;100.00;99361.72;5011508;28;20034;-73
2021/10/14 09:07:32;;;;;;;0.00;0.00;;;;;;;8.69;100.00;99359.53;5011750;28;20550;-73
2021/10/14 09:10:11;;;;;;;0.10;0.10;;;;;;;8.68;100.00;99357.94;5010318;28;20371;-73
2021/10/14 09:12:39;;;;;;;0.05;0.05;;;;;;;8.74;100.00;99365.72;5011687;28;20029;-73
2021/10/14 09:15:09;;;;;;;0.13;0.13;;;;;;;8.65;100.00;99348.59;5011481;28;20034;-73
2021/10/14 09:17:38;;;;;;;0.05;0.05;;;;;;;8.75;100.00;99364.66;5011310;28;20022;-74
2021/10/14 09:20:22;;;;;;;0.00;0.00;;;;;;;8.76;100.00;99360.13;5011341;28;20057;-74
2021/10/14 09:22:56;;;;;;;0.10;0.10;;;;;;;8.71;100.00;99342.22;5011344;28;20030;-74
2021/10/14 09:25:47;;;;;;;0.15;0.15;;;;;;;8.80;100.00;99351.38;5011002;28;20117;-74
2021/10/14 09:28:23;;;;;;;0.00;0.00;;;;;;;8.80;100.00;99361.22;5010899;28;20042;-74
2021/10/14 09:30:56;;;;;;;0.70;0.70;;;;;;;8.80;100.00;99339.88;5011163;28;20026;-74
2021/10/14 09:33:42;;;;;;;0.35;0.35;;;;;;;8.78;100.00;99336.69;5011130;28;20026;-74
2021/10/14 09:36:29;;;;;;;0.25;0.25;;;;;;;8.78;100.00;99336.69;5009822;28;20041;-74
2021/10/14 09:39:04;;;;;;;0.10;0.10;;;;;;;8.78;100.00;99334.81;5011374;28;20072;-74
2021/10/14 09:41:35;;;;;;;0.00;0.00;;;;;;;8.76;100.00;99333.47;5009791;28;20091;-74
2021/10/14 09:44:08;;;;;;;0.00;0.00;;;;;;;8.78;100.00;99332.16;5010968;28;20127;-74
2021/10/14 09:46:36;;;;;;;1.00;0.98;;;;;;;8.75;100.00;99329.19;5011144;28;20149;-74
2021/10/14 09:49:03;;;;;;;0.52;0.52;;;;;;;8.76;100.00;99331.63;5011197;28;20072;-74
2021/10/14 09:51:30;;;;;;;0.60;0.60;;;;;;;8.69;100.00;99314.22;5010982;28;20113;-74
2021/10/14 09:53:57;;;;;;;0.28;0.28;;;;;;;8.73;100.00;99310.00;5011129;28;20100;-74
2021/10/14 09:56:23;;;;;;;0.00;0.00;;;;;;;8.69;100.00;99304.38;5009597;28;20030;-74
2021/10/14 09:58:48;;;;;;;1.73;1.27;;;;;;;8.69;100.00;99307.03;5011095;28;20044;-74
2021/10/14 10:01:14;;;;;;;0.10;0.10;;;;;;;8.79;100.00;99323.09;5010898;28;20104;-74
2021/10/14 10:03:40;;;;;;;0.30;0.30;;;;;;;8.70;100.00;99311.28;5011069;28;20052;-74
2021/10/14 10:06:07;;;;;;;0.20;0.20;;;;;;;8.79;100.00;99335.63;5010549;28;20030;-74
2021/10/14 10:08:42;;;;;;;0.45;0.45;;;;;;;8.78;100.00;99320.69;5011019;28;20033;-74
2021/10/14 10:11:12;;;;;;;0.10;0.10;;;;;;;8.69;100.00;99320.38;5010721;28;20109;-74
2021/10/14 10:13:42;;;;;;;0.32;0.32;;;;;;;8.75;100.00;99319.34;5009623;28;20030;-74
2021/10/14 10:16:23;;;;;;;0.57;0.57;;;;;;;8.80;100.00;99331.88;5011513;28;20057;-74
2021/10/14 10:19:02;;;;;;;0.10;0.10;;;;;;;8.83;100.00;99342.03;5014812;28;20125;-74
2021/10/14 10:21:30;;;;;;;0.00;0.00;;;;;;;8.84;100.00;99343.66;5013079;28;20045;-74
2021/10/14 10:24:22;;;;;;;0.00;0.00;;;;;;;8.84;100.00;99335.66;5014798;28;20122;-74
2021/10/14 10:26:49;;;;;;;0.45;0.45;;;;;;;8.79;100.00;99316.97;5007292;28;20045;-74
2021/10/14 10:29:14;;;;;;;0.30;0.30;;;;;;;8.86;100.00;99332.72;5014119;28;20033;-74
2021/10/14 10:31:49;;;;;;;0.00;0.00;;;;;;;8.85;100.00;99345.28;5014233;28;20063;-74
2021/10/14 10:34:50;;;;;;;0.10;0.10;;;;;;;8.84;100.00;99334.84;5013055;28;20548;-74
2021/10/14 10:37:36;;;;;;;0.00;0.00;;;;;;;8.84;100.00;99335.66;5014321;28;20497;-74
2021/10/14 10:40:16;;;;;;;0.00;0.00;;;;;;;8.82;100.00;99327.09;5014230;28;20508;-74
2021/10/14 10:42:43;;;;;;;0.00;0.00;;;;;;;8.83;100.00;99323.38;5014203;28;20422;-74
2021/10/14 10:45:19;;;;;;;0.00;0.00;;;;;;;8.84;100.00;99313.50;5014517;28;20088;-74
2021/10/14 10:47:44;;;;;;;0.00;0.00;;;;;;;8.85;100.00;99317.78;5014426;28;20029;-75
2021/10/14 10:50:33;;;;;;;0.08;0.08;;;;;;;8.85;100.00;99307.09;5012712;28;20025;-74
2021/10/14 10:53:13;;;;;;;0.10;0.10;;;;;;;8.78;100.00;99304.69;5010935;28;20038;-74
2021/10/14 10:55:41;;;;;;;0.28;0.28;;;;;;;8.85;100.00;99310.59;5014252;28;20026;-74
2021/10/14 10:58:09;;;;;;;0.20;0.20;;;;;;;8.84;100.00;99316.16;5014285;28;20033;-74
2021/10/14 11:00:45;;;;;;;0.00;0.00;;;;;;;8.79;100.00;99309.75;5012571;28;20026;-75
2021/10/14 11:03:14;;;;;;;0.35;0.35;;;;;;;8.86;100.00;99319.38;5013974;28;20038;-74
2021/10/14 11:05:54;;;;;;;0.00;0.00;;;;;;;8.80;100.00;99308.69;5014087;28;20057;-72
2021/10/14 11:08:24;;;;;;;0.20;0.20;;;;;;;8.74;100.00;99295.56;5013834;28;20034;-74
2021/10/14 11:10:56;;;;;;;0.20;0.20;;;;;;;8.72;100.00;99292.38;5012594;28;20038;-73
2021/10/14 11:13:24;;;;;;;0.00;0.00;;;;;;;8.76;100.00;99293.47;5012240;28;20041;-73
2021/10/14 11:15:52;;;;;;;0.00;0.00;;;;;;;8.68;100.00;99277.94;5013938;28;20030;-73
2021/10/14 11:18:19;;;;;;;0.00;0.00;;;;;;;8.69;100.00;99274.22;5012316;28;20033;-73
2021/10/14 11:20:59;;;;;;;0.00;0.00;;;;;;;8.75;100.00;99286.53;5013506;28;20095;-73
2021/10/14 11:23:30;;;;;;;0.00;0.00;;;;;;;8.73;100.00;99291.31;5012270;28;20453;-73
2021/10/14 11:26:20;;;;;;;0.00;0.00;;;;;;;8.70;100.00;99289.16;5013728;28;20026;-74
2021/10/14 11:29:28;;;;;;;0.00;0.00;;;;;;;8.66;100.00;99296.88;5027664;28;20498;-74
2021/10/14 11:32:05;;;;;;;0.22;0.22;;;;;;;8.63;100.00;99300.06;5012208;28;20053;-74
2021/10/14 11:34:30;;;;;;;0.10;0.10;;;;;;;8.51;100.00;99280.75;5013558;28;20044;-74